sensor_id;sensor_type;location;lat;lon;timestamp;P1;durP1;ratioP1;P2;durP2;ratioP2
73940;SDS011;62294;48.554;10.202;2023-05-10T00:00:16;3.03;;;2.22;;
73940;SDS011;62294;48.554;10.202;2023-05-10T00:02:43;3.05;;;2.00;;
73940;SDS011;62294;48.554;10.202;2023-05-10T00:05:10;4.22;;;2.65;;
73940;SDS011;62294;48.554;10.202;2023-05-10T00:07:36;5.22;;;2.90;;
73940;SDS011;62294;48.554;10.202;2023-05-10T00:10:03;4.18;;;2.85;;
73940;SDS011;62294;48.554;10.202;2023-05-10T00:12:29;3.83;;;2.75;;
73940;SDS011;62294;48.554;10.202;2023-05-10T00:14:56;5.45;;;3.55;;
73940;SDS011;62294;48.554;10.202;2023-05-10T00:17:23;6.13;;;3.85;;
73940;SDS011;62294;48.554;10.202;2023-05-10T00:19:49;4.72;;;3.25;;
73940;SDS011;62294;48.554;10.202;2023-05-10T00:22:16;6.03;;;3.78;;
73940;SDS011;62294;48.554;10.202;2023-05-10T00:24:42;4.93;;;3.38;;
73940;SDS011;62294;48.554;10.202;2023-05-10T00:27:09;4.75;;;3.25;;
73940;SDS011;62294;48.554;10.202;2023-05-10T00:29:36;4.38;;;2.80;;
73940;SDS011;62294;48.554;10.202;2023-05-10T00:32:02;5.47;;;2.97;;
73940;SDS011;62294;48.554;10.202;2023-05-10T00:34:28;3.92;;;2.50;;
73940;SDS011;62294;48.554;10.202;2023-05-10T00:36:55;4.38;;;2.63;;
73940;SDS011;62294;48.554;10.202;2023-05-10T00:39:22;3.72;;;2.40;;
73940;SDS011;62294;48.554;10.202;2023-05-10T00:41:48;4.00;;;2.38;;
73940;SDS011;62294;48.554;10.202;2023-05-10T00:44:15;3.15;;;2.13;;
73940;SDS011;62294;48.554;10.202;2023-05-10T00:46:41;3.05;;;2.08;;
73940;SDS011;62294;48.554;10.202;2023-05-10T00:49:08;2.85;;;2.08;;
73940;SDS011;62294;48.554;10.202;2023-05-10T00:51:35;4.05;;;2.30;;
73940;SDS011;62294;48.554;10.202;2023-05-10T00:54:02;3.30;;;2.17;;
73940;SDS011;62294;48.554;10.202;2023-05-10T00:56:29;3.63;;;2.20;;
73940;SDS011;62294;48.554;10.202;2023-05-10T00:58:56;3.83;;;2.08;;
73940;SDS011;62294;48.554;10.202;2023-05-10T01:01:23;3.53;;;2.00;;
73940;SDS011;62294;48.554;10.202;2023-05-10T01:03:49;4.03;;;2.05;;
73940;SDS011;62294;48.554;10.202;2023-05-10T01:06:16;2.78;;;2.05;;
73940;SDS011;62294;48.554;10.202;2023-05-10T01:08:42;3.22;;;1.77;;
73940;SDS011;62294;48.554;10.202;2023-05-10T01:11:09;2.63;;;1.77;;
73940;SDS011;62294;48.554;10.202;2023-05-10T01:13:36;2.20;;;1.73;;
73940;SDS011;62294;48.554;10.202;2023-05-10T01:16:04;2.70;;;1.92;;
73940;SDS011;62294;48.554;10.202;2023-05-10T01:18:33;3.08;;;2.20;;
73940;SDS011;62294;48.554;10.202;2023-05-10T01:23:59;2.78;;;1.70;;
73940;SDS011;62294;48.554;10.202;2023-05-10T01:37:38;3.55;;;2.20;;
73940;SDS011;62294;48.554;10.202;2023-05-10T01:40:30;3.40;;;1.80;;
73940;SDS011;62294;48.554;10.202;2023-05-10T01:43:03;3.55;;;2.25;;
73940;SDS011;62294;48.554;10.202;2023-05-10T01:45:39;3.97;;;2.50;;
73940;SDS011;62294;48.554;10.202;2023-05-10T01:48:10;3.40;;;2.30;;
73940;SDS011;62294;48.554;10.202;2023-05-10T01:50:38;3.85;;;2.70;;
73940;SDS011;62294;48.554;10.202;2023-05-10T01:53:08;3.97;;;2.83;;
73940;SDS011;62294;48.554;10.202;2023-05-10T01:55:41;3.20;;;2.30;;
73940;SDS011;62294;48.554;10.202;2023-05-10T01:58:22;2.95;;;1.98;;
73940;SDS011;62294;48.554;10.202;2023-05-10T02:00:57;4.38;;;2.40;;
73940;SDS011;62294;48.554;10.202;2023-05-10T02:03:27;3.85;;;2.38;;
73940;SDS011;62294;48.554;10.202;2023-05-10T02:05:55;3.45;;;2.22;;
73940;SDS011;62294;48.554;10.202;2023-05-10T02:08:23;4.10;;;2.03;;
73940;SDS011;62294;48.554;10.202;2023-05-10T02:10:52;3.53;;;1.83;;
73940;SDS011;62294;48.554;10.202;2023-05-10T02:13:20;4.78;;;2.00;;
73940;SDS011;62294;48.554;10.202;2023-05-10T02:15:48;2.92;;;1.60;;
73940;SDS011;62294;48.554;10.202;2023-05-10T02:18:17;3.13;;;1.20;;
73940;SDS011;62294;48.554;10.202;2023-05-10T02:20:45;1.08;;;0.75;;
73940;SDS011;62294;48.554;10.202;2023-05-10T02:23:13;0.68;;;0.68;;
73940;SDS011;62294;48.554;10.202;2023-05-10T02:25:43;0.88;;;0.55;;
73940;SDS011;62294;48.554;10.202;2023-05-10T02:28:11;0.50;;;0.50;;
73940;SDS011;62294;48.554;10.202;2023-05-10T02:30:39;1.45;;;0.50;;
73940;SDS011;62294;48.554;10.202;2023-05-10T02:33:06;1.02;;;0.30;;
73940;SDS011;62294;48.554;10.202;2023-05-10T02:35:33;0.20;;;0.20;;
73940;SDS011;62294;48.554;10.202;2023-05-10T02:38:02;0.55;;;0.30;;
73940;SDS011;62294;48.554;10.202;2023-05-10T02:40:30;0.20;;;0.20;;
73940;SDS011;62294;48.554;10.202;2023-05-10T02:42:58;0.95;;;0.13;;
73940;SDS011;62294;48.554;10.202;2023-05-10T02:45:27;0.38;;;0.20;;
73940;SDS011;62294;48.554;10.202;2023-05-10T02:47:56;0.10;;;0.10;;
73940;SDS011;62294;48.554;10.202;2023-05-10T02:50:22;0.10;;;0.10;;
73940;SDS011;62294;48.554;10.202;2023-05-10T02:52:54;0.10;;;0.10;;
73940;SDS011;62294;48.554;10.202;2023-05-10T02:55:32;0.30;;;0.30;;
73940;SDS011;62294;48.554;10.202;2023-05-10T02:58:06;0.32;;;0.30;;
73940;SDS011;62294;48.554;10.202;2023-05-10T03:00:33;1.48;;;0.30;;
73940;SDS011;62294;48.554;10.202;2023-05-10T03:02:59;0.32;;;0.30;;
73940;SDS011;62294;48.554;10.202;2023-05-10T03:05:26;0.20;;;0.20;;
73940;SDS011;62294;48.554;10.202;2023-05-10T03:07:53;0.32;;;0.32;;
73940;SDS011;62294;48.554;10.202;2023-05-10T03:10:21;1.25;;;0.40;;
73940;SDS011;62294;48.554;10.202;2023-05-10T03:13:07;0.20;;;0.20;;
73940;SDS011;62294;48.554;10.202;2023-05-10T03:16:06;0.40;;;0.40;;
73940;SDS011;62294;48.554;10.202;2023-05-10T03:18:48;0.50;;;0.30;;
73940;SDS011;62294;48.554;10.202;2023-05-10T03:21:20;0.20;;;0.20;;
73940;SDS011;62294;48.554;10.202;2023-05-10T03:23:59;0.20;;;0.20;;
73940;SDS011;62294;48.554;10.202;2023-05-10T03:26:32;0.40;;;0.40;;
73940;SDS011;62294;48.554;10.202;2023-05-10T03:29:00;0.40;;;0.40;;
73940;SDS011;62294;48.554;10.202;2023-05-10T03:31:28;0.40;;;0.40;;
73940;SDS011;62294;48.554;10.202;2023-05-10T03:33:54;0.43;;;0.43;;
73940;SDS011;62294;48.554;10.202;2023-05-10T03:36:21;0.50;;;0.50;;
73940;SDS011;62294;48.554;10.202;2023-05-10T03:38:48;3.50;;;0.65;;
73940;SDS011;62294;48.554;10.202;2023-05-10T03:41:14;1.05;;;0.50;;
73940;SDS011;62294;48.554;10.202;2023-05-10T03:43:41;0.30;;;0.30;;
73940;SDS011;62294;48.554;10.202;2023-05-10T03:46:07;0.65;;;0.47;;
73940;SDS011;62294;48.554;10.202;2023-05-10T03:48:34;0.45;;;0.40;;
73940;SDS011;62294;48.554;10.202;2023-05-10T03:51:01;0.70;;;0.47;;
73940;SDS011;62294;48.554;10.202;2023-05-10T03:53:28;0.60;;;0.60;;
73940;SDS011;62294;48.554;10.202;2023-05-10T03:55:54;0.85;;;0.65;;
73940;SDS011;62294;48.554;10.202;2023-05-10T03:58:21;0.32;;;0.32;;
73940;SDS011;62294;48.554;10.202;2023-05-10T04:00:47;1.48;;;0.50;;
73940;SDS011;62294;48.554;10.202;2023-05-10T04:03:14;2.17;;;0.60;;
73940;SDS011;62294;48.554;10.202;2023-05-10T04:05:41;0.50;;;0.50;;
73940;SDS011;62294;48.554;10.202;2023-05-10T04:08:07;0.95;;;0.65;;
73940;SDS011;62294;48.554;10.202;2023-05-10T04:10:34;0.88;;;0.70;;
73940;SDS011;62294;48.554;10.202;2023-05-10T04:13:01;0.52;;;0.50;;
73940;SDS011;62294;48.554;10.202;2023-05-10T04:15:27;0.85;;;0.50;;
73940;SDS011;62294;48.554;10.202;2023-05-10T04:17:54;0.50;;;0.50;;
73940;SDS011;62294;48.554;10.202;2023-05-10T04:20:20;1.75;;;0.47;;
73940;SDS011;62294;48.554;10.202;2023-05-10T04:22:47;1.00;;;0.40;;
73940;SDS011;62294;48.554;10.202;2023-05-10T04:25:13;2.55;;;0.63;;
73940;SDS011;62294;48.554;10.202;2023-05-10T04:27:40;1.05;;;0.98;;
73940;SDS011;62294;48.554;10.202;2023-05-10T04:30:07;0.40;;;0.40;;
73940;SDS011;62294;48.554;10.202;2023-05-10T04:32:34;8.77;;;1.20;;
73940;SDS011;62294;48.554;10.202;2023-05-10T04:35:00;0.88;;;0.60;;
73940;SDS011;62294;48.554;10.202;2023-05-10T04:37:30;1.20;;;0.60;;
73940;SDS011;62294;48.554;10.202;2023-05-10T04:39:56;0.47;;;0.47;;
73940;SDS011;62294;48.554;10.202;2023-05-10T04:42:22;0.98;;;0.55;;
73940;SDS011;62294;48.554;10.202;2023-05-10T04:44:49;1.00;;;0.82;;
73940;SDS011;62294;48.554;10.202;2023-05-10T04:47:15;2.45;;;0.80;;
73940;SDS011;62294;48.554;10.202;2023-05-10T04:49:42;1.70;;;0.52;;
73940;SDS011;62294;48.554;10.202;2023-05-10T04:52:09;0.57;;;0.50;;
73940;SDS011;62294;48.554;10.202;2023-05-10T04:54:35;1.00;;;0.60;;
73940;SDS011;62294;48.554;10.202;2023-05-10T04:57:02;2.35;;;0.70;;
73940;SDS011;62294;48.554;10.202;2023-05-10T04:59:28;1.40;;;0.40;;
73940;SDS011;62294;48.554;10.202;2023-05-10T05:01:55;0.98;;;0.50;;
73940;SDS011;62294;48.554;10.202;2023-05-10T05:04:21;0.90;;;0.50;;
73940;SDS011;62294;48.554;10.202;2023-05-10T05:06:49;0.65;;;0.47;;
73940;SDS011;62294;48.554;10.202;2023-05-10T05:09:19;1.85;;;0.57;;
73940;SDS011;62294;48.554;10.202;2023-05-10T05:11:45;1.65;;;0.70;;
73940;SDS011;62294;48.554;10.202;2023-05-10T05:14:12;0.82;;;0.60;;
73940;SDS011;62294;48.554;10.202;2023-05-10T05:16:38;0.68;;;0.68;;
73940;SDS011;62294;48.554;10.202;2023-05-10T05:19:05;1.00;;;0.65;;
73940;SDS011;62294;48.554;10.202;2023-05-10T05:21:32;0.85;;;0.65;;
73940;SDS011;62294;48.554;10.202;2023-05-10T05:23:59;4.35;;;0.75;;
73940;SDS011;62294;48.554;10.202;2023-05-10T05:26:26;1.13;;;0.80;;
73940;SDS011;62294;48.554;10.202;2023-05-10T05:28:52;1.95;;;0.70;;
73940;SDS011;62294;48.554;10.202;2023-05-10T05:31:20;0.47;;;0.47;;
73940;SDS011;62294;48.554;10.202;2023-05-10T05:33:47;3.25;;;1.02;;
73940;SDS011;62294;48.554;10.202;2023-05-10T05:36:13;1.38;;;0.75;;
73940;SDS011;62294;48.554;10.202;2023-05-10T05:38:40;1.23;;;0.60;;
73940;SDS011;62294;48.554;10.202;2023-05-10T05:41:07;2.92;;;1.20;;
73940;SDS011;62294;48.554;10.202;2023-05-10T05:43:33;1.60;;;1.02;;
73940;SDS011;62294;48.554;10.202;2023-05-10T05:46:03;2.92;;;1.33;;
73940;SDS011;62294;48.554;10.202;2023-05-10T05:48:30;1.15;;;1.05;;
73940;SDS011;62294;48.554;10.202;2023-05-10T05:50:57;3.10;;;1.55;;
73940;SDS011;62294;48.554;10.202;2023-05-10T05:53:23;1.58;;;1.00;;
73940;SDS011;62294;48.554;10.202;2023-05-10T05:55:54;1.48;;;0.90;;
73940;SDS011;62294;48.554;10.202;2023-05-10T05:58:22;2.13;;;1.10;;
73940;SDS011;62294;48.554;10.202;2023-05-10T06:00:49;2.60;;;1.13;;
73940;SDS011;62294;48.554;10.202;2023-05-10T06:03:16;1.95;;;1.00;;
73940;SDS011;62294;48.554;10.202;2023-05-10T06:05:43;2.42;;;1.00;;
73940;SDS011;62294;48.554;10.202;2023-05-10T06:08:10;1.67;;;0.88;;
73940;SDS011;62294;48.554;10.202;2023-05-10T06:10:36;1.33;;;0.80;;
73940;SDS011;62294;48.554;10.202;2023-05-10T06:13:04;1.77;;;0.85;;
73940;SDS011;62294;48.554;10.202;2023-05-10T06:15:30;1.45;;;1.20;;
73940;SDS011;62294;48.554;10.202;2023-05-10T06:17:57;1.88;;;1.10;;
73940;SDS011;62294;48.554;10.202;2023-05-10T06:20:23;1.15;;;0.93;;
73940;SDS011;62294;48.554;10.202;2023-05-10T06:22:49;2.75;;;0.80;;
73940;SDS011;62294;48.554;10.202;2023-05-10T06:25:16;1.33;;;0.90;;
73940;SDS011;62294;48.554;10.202;2023-05-10T06:27:44;0.77;;;0.70;;
73940;SDS011;62294;48.554;10.202;2023-05-10T06:30:17;1.10;;;0.60;;
73940;SDS011;62294;48.554;10.202;2023-05-10T06:32:43;4.28;;;1.05;;
73940;SDS011;62294;48.554;10.202;2023-05-10T06:35:11;2.88;;;0.70;;
73940;SDS011;62294;48.554;10.202;2023-05-10T06:37:37;0.70;;;0.70;;
73940;SDS011;62294;48.554;10.202;2023-05-10T06:40:04;2.15;;;0.80;;
73940;SDS011;62294;48.554;10.202;2023-05-10T06:42:32;2.15;;;0.70;;
73940;SDS011;62294;48.554;10.202;2023-05-10T06:44:59;1.58;;;0.80;;
73940;SDS011;62294;48.554;10.202;2023-05-10T06:47:25;0.68;;;0.68;;
73940;SDS011;62294;48.554;10.202;2023-05-10T06:49:52;0.65;;;0.65;;
73940;SDS011;62294;48.554;10.202;2023-05-10T06:52:18;0.50;;;0.50;;
73940;SDS011;62294;48.554;10.202;2023-05-10T06:54:44;0.60;;;0.60;;
73940;SDS011;62294;48.554;10.202;2023-05-10T06:57:11;2.85;;;0.60;;
73940;SDS011;62294;48.554;10.202;2023-05-10T06:59:56;0.82;;;0.70;;
73940;SDS011;62294;48.554;10.202;2023-05-10T07:02:24;0.52;;;0.52;;
73940;SDS011;62294;48.554;10.202;2023-05-10T07:04:50;0.88;;;0.88;;
73940;SDS011;62294;48.554;10.202;2023-05-10T07:07:18;0.57;;;0.57;;
73940;SDS011;62294;48.554;10.202;2023-05-10T07:09:45;2.08;;;0.80;;
73940;SDS011;62294;48.554;10.202;2023-05-10T07:12:11;0.85;;;0.85;;
73940;SDS011;62294;48.554;10.202;2023-05-10T07:14:40;0.70;;;0.70;;
73940;SDS011;62294;48.554;10.202;2023-05-10T07:17:07;1.92;;;0.80;;
73940;SDS011;62294;48.554;10.202;2023-05-10T07:19:34;1.38;;;0.85;;
73940;SDS011;62294;48.554;10.202;2023-05-10T07:22:00;2.25;;;0.60;;
73940;SDS011;62294;48.554;10.202;2023-05-10T07:24:27;0.70;;;0.70;;
73940;SDS011;62294;48.554;10.202;2023-05-10T07:26:53;1.17;;;0.80;;
73940;SDS011;62294;48.554;10.202;2023-05-10T07:29:20;3.80;;;1.20;;
73940;SDS011;62294;48.554;10.202;2023-05-10T07:31:47;1.70;;;1.02;;
73940;SDS011;62294;48.554;10.202;2023-05-10T07:34:13;0.82;;;0.80;;
73940;SDS011;62294;48.554;10.202;2023-05-10T07:36:39;1.80;;;0.80;;
73940;SDS011;62294;48.554;10.202;2023-05-10T07:39:08;3.67;;;0.90;;
73940;SDS011;62294;48.554;10.202;2023-05-10T07:41:35;2.58;;;0.70;;
73940;SDS011;62294;48.554;10.202;2023-05-10T07:44:03;2.15;;;0.82;;
73940;SDS011;62294;48.554;10.202;2023-05-10T07:46:31;1.02;;;0.80;;
73940;SDS011;62294;48.554;10.202;2023-05-10T07:48:57;0.63;;;0.63;;
73940;SDS011;62294;48.554;10.202;2023-05-10T07:51:23;1.13;;;0.82;;
73940;SDS011;62294;48.554;10.202;2023-05-10T07:53:50;1.92;;;1.08;;
73940;SDS011;62294;48.554;10.202;2023-05-10T07:56:21;0.80;;;0.77;;
73940;SDS011;62294;48.554;10.202;2023-05-10T07:58:53;0.85;;;0.70;;
73940;SDS011;62294;48.554;10.202;2023-05-10T08:01:20;0.93;;;0.70;;
73940;SDS011;62294;48.554;10.202;2023-05-10T08:03:46;2.13;;;0.98;;
73940;SDS011;62294;48.554;10.202;2023-05-10T08:06:17;1.02;;;0.80;;
73940;SDS011;62294;48.554;10.202;2023-05-10T08:08:45;0.93;;;0.90;;
73940;SDS011;62294;48.554;10.202;2023-05-10T08:11:16;0.95;;;0.95;;
73940;SDS011;62294;48.554;10.202;2023-05-10T08:13:46;0.85;;;0.80;;
73940;SDS011;62294;48.554;10.202;2023-05-10T08:16:14;14.13;;;2.22;;
73940;SDS011;62294;48.554;10.202;2023-05-10T08:18:41;3.78;;;1.00;;
73940;SDS011;62294;48.554;10.202;2023-05-10T08:21:07;0.68;;;0.68;;
73940;SDS011;62294;48.554;10.202;2023-05-10T08:23:34;1.88;;;0.75;;
73940;SDS011;62294;48.554;10.202;2023-05-10T08:26:00;0.80;;;0.80;;
73940;SDS011;62294;48.554;10.202;2023-05-10T08:28:27;1.30;;;1.20;;
73940;SDS011;62294;48.554;10.202;2023-05-10T08:30:53;1.30;;;1.00;;
73940;SDS011;62294;48.554;10.202;2023-05-10T08:33:20;1.60;;;1.10;;
73940;SDS011;62294;48.554;10.202;2023-05-10T08:35:47;0.90;;;0.90;;
73940;SDS011;62294;48.554;10.202;2023-05-10T08:38:13;1.25;;;0.88;;
73940;SDS011;62294;48.554;10.202;2023-05-10T08:40:41;0.70;;;0.70;;
73940;SDS011;62294;48.554;10.202;2023-05-10T08:43:09;1.30;;;1.00;;
73940;SDS011;62294;48.554;10.202;2023-05-10T08:45:42;1.73;;;0.90;;
73940;SDS011;62294;48.554;10.202;2023-05-10T08:48:11;3.05;;;0.90;;
73940;SDS011;62294;48.554;10.202;2023-05-10T08:50:38;0.80;;;0.80;;
73940;SDS011;62294;48.554;10.202;2023-05-10T08:53:08;1.00;;;0.90;;
73940;SDS011;62294;48.554;10.202;2023-05-10T08:55:37;0.75;;;0.75;;
73940;SDS011;62294;48.554;10.202;2023-05-10T08:58:05;1.90;;;0.80;;
73940;SDS011;62294;48.554;10.202;2023-05-10T09:00:33;1.30;;;0.75;;
73940;SDS011;62294;48.554;10.202;2023-05-10T09:03:00;1.38;;;1.05;;
73940;SDS011;62294;48.554;10.202;2023-05-10T09:05:27;1.92;;;0.80;;
73940;SDS011;62294;48.554;10.202;2023-05-10T09:07:54;3.10;;;1.00;;
73940;SDS011;62294;48.554;10.202;2023-05-10T09:10:21;14.32;;;2.65;;
73940;SDS011;62294;48.554;10.202;2023-05-10T09:12:48;3.00;;;1.88;;
73940;SDS011;62294;48.554;10.202;2023-05-10T09:15:16;9.27;;;2.28;;
73940;SDS011;62294;48.554;10.202;2023-05-10T09:17:45;2.00;;;1.80;;
73940;SDS011;62294;48.554;10.202;2023-05-10T09:20:13;2.45;;;2.08;;
73940;SDS011;62294;48.554;10.202;2023-05-10T09:22:40;2.03;;;1.20;;
73940;SDS011;62294;48.554;10.202;2023-05-10T09:25:07;6.03;;;3.03;;
73940;SDS011;62294;48.554;10.202;2023-05-10T09:27:34;4.65;;;3.10;;
73940;SDS011;62294;48.554;10.202;2023-05-10T09:30:02;4.70;;;2.72;;
73940;SDS011;62294;48.554;10.202;2023-05-10T09:32:39;3.13;;;2.20;;
73940;SDS011;62294;48.554;10.202;2023-05-10T09:35:08;2.50;;;1.98;;
73940;SDS011;62294;48.554;10.202;2023-05-10T09:37:35;1.65;;;0.82;;
73940;SDS011;62294;48.554;10.202;2023-05-10T09:40:03;3.13;;;1.00;;
73940;SDS011;62294;48.554;10.202;2023-05-10T09:42:31;1.17;;;0.90;;
73940;SDS011;62294;48.554;10.202;2023-05-10T09:45:03;2.10;;;0.80;;
73940;SDS011;62294;48.554;10.202;2023-05-10T09:47:32;2.17;;;1.15;;
73940;SDS011;62294;48.554;10.202;2023-05-10T09:50:00;1.02;;;0.75;;
73940;SDS011;62294;48.554;10.202;2023-05-10T09:52:31;0.88;;;0.80;;
73940;SDS011;62294;48.554;10.202;2023-05-10T09:55:12;0.80;;;0.80;;
73940;SDS011;62294;48.554;10.202;2023-05-10T09:57:40;2.15;;;0.88;;
73940;SDS011;62294;48.554;10.202;2023-05-10T10:00:07;1.13;;;0.77;;
73940;SDS011;62294;48.554;10.202;2023-05-10T10:02:35;0.70;;;0.70;;
73940;SDS011;62294;48.554;10.202;2023-05-10T10:05:03;1.10;;;1.00;;
73940;SDS011;62294;48.554;10.202;2023-05-10T10:07:32;1.25;;;0.73;;
73940;SDS011;62294;48.554;10.202;2023-05-10T10:09:59;2.97;;;0.85;;
73940;SDS011;62294;48.554;10.202;2023-05-10T10:12:26;2.75;;;1.20;;
73940;SDS011;62294;48.554;10.202;2023-05-10T10:14:53;1.20;;;0.60;;
73940;SDS011;62294;48.554;10.202;2023-05-10T10:17:21;2.60;;;0.77;;
73940;SDS011;62294;48.554;10.202;2023-05-10T10:19:47;0.45;;;0.45;;
73940;SDS011;62294;48.554;10.202;2023-05-10T10:22:14;0.40;;;0.40;;
73940;SDS011;62294;48.554;10.202;2023-05-10T10:24:41;1.65;;;0.50;;
73940;SDS011;62294;48.554;10.202;2023-05-10T10:29:52;1.23;;;0.60;;
73940;SDS011;62294;48.554;10.202;2023-05-10T10:32:33;0.60;;;0.60;;
73940;SDS011;62294;48.554;10.202;2023-05-10T10:35:03;0.50;;;0.50;;
73940;SDS011;62294;48.554;10.202;2023-05-10T10:37:44;0.35;;;0.35;;
73940;SDS011;62294;48.554;10.202;2023-05-10T10:40:24;0.45;;;0.45;;
73940;SDS011;62294;48.554;10.202;2023-05-10T10:43:20;1.92;;;0.50;;
73940;SDS011;62294;48.554;10.202;2023-05-10T10:46:08;0.90;;;0.40;;
73940;SDS011;62294;48.554;10.202;2023-05-10T10:48:41;0.50;;;0.50;;
73940;SDS011;62294;48.554;10.202;2023-05-10T10:51:14;3.40;;;0.80;;
73940;SDS011;62294;48.554;10.202;2023-05-10T10:53:40;0.50;;;0.50;;
73940;SDS011;62294;48.554;10.202;2023-05-10T10:56:08;0.70;;;0.70;;
73940;SDS011;62294;48.554;10.202;2023-05-10T10:58:37;0.70;;;0.70;;
73940;SDS011;62294;48.554;10.202;2023-05-10T11:06:29;2.33;;;1.00;;
73940;SDS011;62294;48.554;10.202;2023-05-10T11:09:10;3.45;;;2.15;;
73940;SDS011;62294;48.554;10.202;2023-05-10T11:11:51;0.63;;;0.63;;
73940;SDS011;62294;48.554;10.202;2023-05-10T11:14:21;0.70;;;0.70;;
73940;SDS011;62294;48.554;10.202;2023-05-10T11:16:48;1.63;;;0.50;;
73940;SDS011;62294;48.554;10.202;2023-05-10T11:19:15;0.40;;;0.40;;
73940;SDS011;62294;48.554;10.202;2023-05-10T11:24:33;1.20;;;0.57;;
73940;SDS011;62294;48.554;10.202;2023-05-10T11:27:00;0.60;;;0.60;;
73940;SDS011;62294;48.554;10.202;2023-05-10T11:29:27;0.50;;;0.50;;
73940;SDS011;62294;48.554;10.202;2023-05-10T11:31:53;0.95;;;0.60;;
73940;SDS011;62294;48.554;10.202;2023-05-10T11:34:24;0.70;;;0.50;;
73940;SDS011;62294;48.554;10.202;2023-05-10T11:36:52;0.57;;;0.50;;
73940;SDS011;62294;48.554;10.202;2023-05-10T11:39:20;1.98;;;0.80;;
73940;SDS011;62294;48.554;10.202;2023-05-10T11:41:48;2.72;;;0.60;;
73940;SDS011;62294;48.554;10.202;2023-05-10T11:44:15;1.95;;;0.75;;
73940;SDS011;62294;48.554;10.202;2023-05-10T11:46:42;8.35;;;2.15;;
73940;SDS011;62294;48.554;10.202;2023-05-10T11:49:09;3.47;;;0.80;;
73940;SDS011;62294;48.554;10.202;2023-05-10T11:51:36;2.72;;;0.82;;
73940;SDS011;62294;48.554;10.202;2023-05-10T11:54:06;1.27;;;0.60;;
73940;SDS011;62294;48.554;10.202;2023-05-10T11:56:37;0.57;;;0.57;;
73940;SDS011;62294;48.554;10.202;2023-05-10T11:59:05;10.23;;;1.65;;
73940;SDS011;62294;48.554;10.202;2023-05-10T12:01:31;0.68;;;0.68;;
73940;SDS011;62294;48.554;10.202;2023-05-10T12:04:00;11.23;;;1.63;;
73940;SDS011;62294;48.554;10.202;2023-05-10T12:06:28;3.15;;;0.85;;
73940;SDS011;62294;48.554;10.202;2023-05-10T12:08:58;0.60;;;0.60;;
73940;SDS011;62294;48.554;10.202;2023-05-10T12:11:25;2.17;;;0.80;;
73940;SDS011;62294;48.554;10.202;2023-05-10T12:13:53;2.85;;;0.80;;
73940;SDS011;62294;48.554;10.202;2023-05-10T12:16:21;1.65;;;0.77;;
73940;SDS011;62294;48.554;10.202;2023-05-10T12:18:52;2.13;;;0.70;;
73940;SDS011;62294;48.554;10.202;2023-05-10T12:21:22;1.95;;;0.80;;
73940;SDS011;62294;48.554;10.202;2023-05-10T12:23:52;1.67;;;0.68;;
73940;SDS011;62294;48.554;10.202;2023-05-10T12:26:23;0.75;;;0.75;;
73940;SDS011;62294;48.554;10.202;2023-05-10T12:28:52;1.00;;;0.90;;
73940;SDS011;62294;48.554;10.202;2023-05-10T12:31:19;0.80;;;0.80;;
73940;SDS011;62294;48.554;10.202;2023-05-10T12:33:46;1.67;;;0.70;;
73940;SDS011;62294;48.554;10.202;2023-05-10T12:36:15;0.75;;;0.75;;
73940;SDS011;62294;48.554;10.202;2023-05-10T12:38:43;1.88;;;0.70;;
73940;SDS011;62294;48.554;10.202;2023-05-10T12:41:13;0.68;;;0.68;;
73940;SDS011;62294;48.554;10.202;2023-05-10T12:43:41;3.05;;;0.70;;
73940;SDS011;62294;48.554;10.202;2023-05-10T12:46:12;15.02;;;1.42;;
73940;SDS011;62294;48.554;10.202;2023-05-10T12:48:41;0.70;;;0.70;;
73940;SDS011;62294;48.554;10.202;2023-05-10T12:51:08;1.13;;;0.70;;
73940;SDS011;62294;48.554;10.202;2023-05-10T12:53:38;0.90;;;0.60;;
73940;SDS011;62294;48.554;10.202;2023-05-10T12:56:08;2.13;;;0.60;;
73940;SDS011;62294;48.554;10.202;2023-05-10T12:58:34;1.08;;;0.70;;
73940;SDS011;62294;48.554;10.202;2023-05-10T13:01:01;1.13;;;0.90;;
73940;SDS011;62294;48.554;10.202;2023-05-10T13:03:28;1.02;;;0.73;;
73940;SDS011;62294;48.554;10.202;2023-05-10T13:05:55;17.08;;;2.65;;
73940;SDS011;62294;48.554;10.202;2023-05-10T13:08:21;1.60;;;0.90;;
73940;SDS011;62294;48.554;10.202;2023-05-10T13:10:48;1.30;;;0.77;;
73940;SDS011;62294;48.554;10.202;2023-05-10T13:13:15;0.70;;;0.70;;
73940;SDS011;62294;48.554;10.202;2023-05-10T13:15:41;1.10;;;0.85;;
73940;SDS011;62294;48.554;10.202;2023-05-10T13:18:07;2.53;;;0.60;;
73940;SDS011;62294;48.554;10.202;2023-05-10T13:20:34;0.40;;;0.40;;
73940;SDS011;62294;48.554;10.202;2023-05-10T13:23:01;0.30;;;0.30;;
73940;SDS011;62294;48.554;10.202;2023-05-10T13:25:29;1.75;;;0.52;;
73940;SDS011;62294;48.554;10.202;2023-05-10T13:27:55;2.45;;;0.60;;
73940;SDS011;62294;48.554;10.202;2023-05-10T13:30:23;1.95;;;0.63;;
73940;SDS011;62294;48.554;10.202;2023-05-10T13:32:50;1.58;;;0.60;;
73940;SDS011;62294;48.554;10.202;2023-05-10T13:35:16;0.93;;;0.60;;
73940;SDS011;62294;48.554;10.202;2023-05-10T13:37:43;0.70;;;0.50;;
73940;SDS011;62294;48.554;10.202;2023-05-10T13:40:09;0.65;;;0.60;;
73940;SDS011;62294;48.554;10.202;2023-05-10T13:42:36;1.08;;;0.68;;
73940;SDS011;62294;48.554;10.202;2023-05-10T13:45:03;0.98;;;0.70;;
73940;SDS011;62294;48.554;10.202;2023-05-10T13:47:31;1.25;;;0.70;;
73940;SDS011;62294;48.554;10.202;2023-05-10T13:49:57;0.65;;;0.50;;
73940;SDS011;62294;48.554;10.202;2023-05-10T13:52:24;0.55;;;0.55;;
73940;SDS011;62294;48.554;10.202;2023-05-10T13:54:50;0.70;;;0.50;;
73940;SDS011;62294;48.554;10.202;2023-05-10T13:57:20;1.40;;;0.70;;
73940;SDS011;62294;48.554;10.202;2023-05-10T13:59:47;1.13;;;0.60;;
73940;SDS011;62294;48.554;10.202;2023-05-10T14:02:14;0.50;;;0.50;;
73940;SDS011;62294;48.554;10.202;2023-05-10T14:04:40;1.05;;;0.68;;
73940;SDS011;62294;48.554;10.202;2023-05-10T14:07:07;3.47;;;0.82;;
73940;SDS011;62294;48.554;10.202;2023-05-10T14:09:33;1.90;;;0.70;;
73940;SDS011;62294;48.554;10.202;2023-05-10T14:12:00;2.30;;;0.82;;
73940;SDS011;62294;48.554;10.202;2023-05-10T14:14:26;4.28;;;1.20;;
73940;SDS011;62294;48.554;10.202;2023-05-10T14:16:54;0.82;;;0.80;;
73940;SDS011;62294;48.554;10.202;2023-05-10T14:19:21;1.50;;;0.80;;
73940;SDS011;62294;48.554;10.202;2023-05-10T14:21:47;0.75;;;0.73;;
73940;SDS011;62294;48.554;10.202;2023-05-10T14:24:13;2.25;;;0.90;;
73940;SDS011;62294;48.554;10.202;2023-05-10T14:26:40;1.02;;;0.73;;
73940;SDS011;62294;48.554;10.202;2023-05-10T14:29:06;1.63;;;1.05;;
73940;SDS011;62294;48.554;10.202;2023-05-10T14:31:35;1.10;;;0.85;;
73940;SDS011;62294;48.554;10.202;2023-05-10T14:34:02;2.35;;;1.63;;
73940;SDS011;62294;48.554;10.202;2023-05-10T14:36:28;1.42;;;1.00;;
73940;SDS011;62294;48.554;10.202;2023-05-10T14:38:55;2.80;;;1.10;;
73940;SDS011;62294;48.554;10.202;2023-05-10T14:41:22;3.75;;;1.00;;
73940;SDS011;62294;48.554;10.202;2023-05-10T14:43:48;3.00;;;1.48;;
73940;SDS011;62294;48.554;10.202;2023-05-10T14:46:15;3.30;;;1.42;;
73940;SDS011;62294;48.554;10.202;2023-05-10T14:48:42;2.13;;;1.52;;
73940;SDS011;62294;48.554;10.202;2023-05-10T14:51:08;4.32;;;1.80;;
73940;SDS011;62294;48.554;10.202;2023-05-10T14:53:35;2.92;;;1.23;;
73940;SDS011;62294;48.554;10.202;2023-05-10T14:56:01;1.05;;;0.93;;
73940;SDS011;62294;48.554;10.202;2023-05-10T14:58:29;0.88;;;0.85;;
73940;SDS011;62294;48.554;10.202;2023-05-10T15:00:59;3.13;;;1.10;;
73940;SDS011;62294;48.554;10.202;2023-05-10T15:03:26;1.20;;;0.90;;